createdAt,value
2022-10-17T00:00:57.009Z,18.96
2022-10-17T00:01:58.447Z,18.99
2022-10-17T00:02:59.895Z,18.96
2022-10-17T00:04:01.369Z,18.87
2022-10-17T00:05:02.830Z,18.87
2022-10-17T00:06:07.695Z,18.86
2022-10-17T00:07:09.127Z,18.84
2022-10-17T00:08:10.747Z,18.81
2022-10-17T00:09:12.607Z,18.82
2022-10-17T00:10:14.128Z,18.77
2022-10-17T00:11:19.538Z,18.70
2022-10-17T00:12:20.994Z,18.67
2022-10-17T00:13:22.436Z,18.68
2022-10-17T00:14:23.926Z,18.64
2022-10-17T00:15:25.400Z,18.61
2022-10-17T00:16:28.063Z,18.58
2022-10-17T00:17:30.126Z,18.54
2022-10-17T00:18:31.804Z,18.53
2022-10-17T00:19:33.391Z,18.49
2022-10-17T00:20:35.452Z,18.51
2022-10-17T00:21:36.927Z,18.54
2022-10-17T00:22:38.378Z,18.49
2022-10-17T00:23:39.875Z,18.54
2022-10-17T00:24:41.347Z,18.57
2022-10-17T00:25:42.775Z,18.62
2022-10-17T00:26:44.279Z,18.64
2022-10-17T00:27:45.762Z,18.63
2022-10-17T00:28:49.569Z,18.60
2022-10-17T00:29:51.275Z,18.60
2022-10-17T00:30:59.066Z,18.62
2022-10-17T00:32:00.580Z,18.56
2022-10-17T00:33:02.028Z,18.55
2022-10-17T00:34:03.642Z,18.60
2022-10-17T00:35:05.129Z,18.65
2022-10-17T00:36:07.764Z,18.68
2022-10-17T00:37:09.995Z,18.59
2022-10-17T00:38:11.430Z,18.60
2022-10-17T00:39:13.679Z,18.63
2022-10-17T00:40:15.158Z,18.64
2022-10-17T00:41:17.846Z,18.62
2022-10-17T00:42:19.379Z,18.60
2022-10-17T00:43:20.847Z,18.51
2022-10-17T00:44:31.291Z,18.53
2022-10-17T00:45:32.831Z,18.57
2022-10-17T00:46:35.076Z,18.51
2022-10-17T00:47:36.599Z,18.50
2022-10-17T00:48:38.130Z,18.49
2022-10-17T00:49:39.666Z,18.51
2022-10-17T00:50:41.634Z,18.48
2022-10-17T00:51:43.965Z,18.45
2022-10-17T00:52:45.497Z,18.45
2022-10-17T00:53:46.940Z,18.47
2022-10-17T00:54:49.355Z,18.46
2022-10-17T00:55:51.439Z,18.46
2022-10-17T00:56:52.910Z,18.47
2022-10-17T00:57:54.418Z,18.52
2022-10-17T00:58:55.957Z,18.50
2022-10-17T00:59:57.431Z,18.49
2022-10-17T01:00:58.894Z,18.51
2022-10-17T01:02:00.908Z,18.53
2022-10-17T01:03:02.379Z,18.51
2022-10-17T01:04:03.870Z,18.53
2022-10-17T01:05:06.210Z,18.48
2022-10-17T01:06:09.436Z,18.48
2022-10-17T01:07:11.003Z,18.45
2022-10-17T01:08:12.462Z,18.40
2022-10-17T01:09:13.910Z,18.39
2022-10-17T01:10:15.419Z,18.40
2022-10-17T01:11:20.654Z,18.41
2022-10-17T01:12:23.344Z,18.36
2022-10-17T01:13:51.330Z,18.36
2022-10-17T01:14:55.942Z,18.45
2022-10-17T01:16:00.609Z,18.39
2022-10-17T01:17:06.614Z,18.28
2022-10-17T01:18:26.242Z,18.34
2022-10-17T01:19:44.730Z,18.36
2022-10-17T01:20:51.802Z,18.39
2022-10-17T01:21:58.367Z,18.41
2022-10-17T01:23:02.803Z,18.39
2022-10-17T01:24:16.286Z,18.43
2022-10-17T01:25:21.017Z,18.40
2022-10-17T01:26:41.658Z,18.43
2022-10-17T01:27:49.535Z,18.42
2022-10-17T01:29:04.163Z,18.40
2022-10-17T01:30:17.455Z,18.36
2022-10-17T01:31:34.022Z,18.28
2022-10-17T01:32:56.340Z,18.26
2022-10-17T01:34:02.647Z,18.16
2022-10-17T01:35:07.286Z,18.24
2022-10-17T01:36:10.352Z,18.17
2022-10-17T01:37:30.666Z,18.15
2022-10-17T01:38:33.823Z,18.15
2022-10-17T01:39:45.667Z,18.13
2022-10-17T01:40:51.157Z,18.13
2022-10-17T01:42:11.543Z,18.05
2022-10-17T01:43:12.976Z,18.02
2022-10-17T01:44:14.692Z,18.03
2022-10-17T01:45:17.027Z,18.03
2022-10-17T01:46:33.990Z,18.03
2022-10-17T01:47:35.492Z,18.04
2022-10-17T01:48:37.457Z,18.04
2022-10-17T01:49:39.193Z,18.04
2022-10-17T01:50:44.701Z,18.07
2022-10-17T01:51:49.960Z,18.11
2022-10-17T01:52:55.786Z,18.11
2022-10-17T01:53:59.371Z,18.09
2022-10-17T01:55:04.725Z,18.15
2022-10-17T01:56:06.973Z,18.17
2022-10-17T01:57:09.662Z,18.19
2022-10-17T01:58:15.102Z,18.24
2022-10-17T01:59:45.542Z,18.23
2022-10-17T02:00:47.040Z,18.28
2022-10-17T02:01:49.526Z,18.33
2022-10-17T02:02:52.322Z,18.36
2022-10-17T02:03:53.794Z,18.36
2022-10-17T02:04:56.089Z,18.25
2022-10-17T02:05:57.546Z,18.24
2022-10-17T02:07:05.886Z,18.21
2022-10-17T02:08:07.453Z,18.16
2022-10-17T02:09:25.359Z,18.10
2022-10-17T02:10:36.550Z,18.11
2022-10-17T02:11:38.063Z,18.12
2022-10-17T02:12:53.987Z,18.11
2022-10-17T02:14:01.096Z,18.11
2022-10-17T02:15:22.597Z,18.02
2022-10-17T02:16:29.475Z,18.00
2022-10-17T02:17:43.343Z,17.98
2022-10-17T02:18:52.542Z,17.89
2022-10-17T02:19:56.564Z,17.86
2022-10-17T02:21:00.957Z,17.89
2022-10-17T02:22:20.906Z,17.88
2022-10-17T02:23:34.332Z,17.91
2022-10-17T02:24:38.847Z,17.97
2022-10-17T02:25:47.347Z,18.02
2022-10-17T02:26:53.706Z,17.97
2022-10-17T02:28:30.209Z,18.01
2022-10-17T02:29:36.780Z,17.96
2022-10-17T02:30:49.982Z,17.96
2022-10-17T02:33:39.580Z,17.74
2022-10-17T02:34:41.963Z,17.71
2022-10-17T02:35:44.655Z,17.71
2022-10-17T02:36:48.984Z,17.73
2022-10-17T02:37:50.529Z,17.66
2022-10-17T02:38:51.986Z,17.70
2022-10-17T02:39:54.180Z,17.74
2022-10-17T02:40:55.651Z,17.74
2022-10-17T02:41:57.999Z,17.77
2022-10-17T02:42:59.985Z,17.74
2022-10-17T02:44:03.202Z,17.71
2022-10-17T02:45:04.880Z,17.64
2022-10-17T02:46:07.046Z,17.57
2022-10-17T02:47:20.563Z,17.63
2022-10-17T02:48:30.911Z,17.67
2022-10-17T02:49:34.126Z,17.61
2022-10-17T02:50:38.267Z,17.60
2022-10-17T02:51:44.059Z,17.60
2022-10-17T02:52:46.395Z,17.62
2022-10-17T02:53:51.027Z,17.58
2022-10-17T02:54:54.465Z,17.56
2022-10-17T02:55:57.061Z,17.60
2022-10-17T02:56:59.755Z,17.67
2022-10-17T02:58:03.610Z,17.71
2022-10-17T02:59:05.079Z,17.73
2022-10-17T03:00:07.580Z,17.72
2022-10-17T03:01:09.143Z,17.72
2022-10-17T03:02:10.960Z,17.74
2022-10-17T03:03:25.705Z,17.73
2022-10-17T03:04:27.246Z,17.74
2022-10-17T03:05:29.263Z,17.77
2022-10-17T03:06:30.715Z,17.80
2022-10-17T03:07:32.301Z,17.85
2022-10-17T03:08:35.464Z,17.78
2022-10-17T03:09:37.161Z,17.80
2022-10-17T03:10:39.117Z,17.76
2022-10-17T03:11:40.870Z,17.77
2022-10-17T03:12:43.363Z,17.80
2022-10-17T03:13:45.355Z,17.81
2022-10-17T03:14:46.815Z,17.79
2022-10-17T03:15:48.285Z,17.83
2022-10-17T03:16:49.859Z,17.82
2022-10-17T03:17:52.764Z,17.81
2022-10-17T03:18:54.373Z,17.84
2022-10-17T03:19:55.935Z,17.84
2022-10-17T03:20:57.423Z,17.83
2022-10-17T03:21:58.999Z,17.83
2022-10-17T03:23:00.444Z,17.84
2022-10-17T03:24:02.633Z,17.80
2022-10-17T03:25:04.207Z,17.84
2022-10-17T03:26:06.114Z,17.81
2022-10-17T03:27:08.791Z,17.81
2022-10-17T03:28:12.411Z,17.82
2022-10-17T03:29:14.343Z,17.81
2022-10-17T03:30:15.879Z,17.82
2022-10-17T03:31:17.830Z,17.83
2022-10-17T03:32:20.678Z,17.76
2022-10-17T03:33:22.736Z,17.73
2022-10-17T03:34:24.478Z,17.70
2022-10-17T03:35:26.428Z,17.69
2022-10-17T03:36:28.295Z,17.63
2022-10-17T03:37:30.488Z,17.68
2022-10-17T03:38:34.044Z,17.72
2022-10-17T03:39:35.510Z,17.72
2022-10-17T03:40:37.028Z,17.74
2022-10-17T03:41:38.860Z,17.71
2022-10-17T03:42:40.486Z,17.73
2022-10-17T03:43:42.275Z,17.77
2022-10-17T03:44:43.823Z,17.79
2022-10-17T03:45:45.300Z,17.81
2022-10-17T03:46:46.802Z,17.80
2022-10-17T03:47:48.301Z,17.80
2022-10-17T03:48:50.189Z,17.82
2022-10-17T03:49:53.531Z,17.85
2022-10-17T03:50:59.177Z,17.90
2022-10-17T03:52:00.734Z,17.94
2022-10-17T03:53:02.684Z,17.95
2022-10-17T03:54:04.308Z,17.98
2022-10-17T03:55:05.914Z,18.00
2022-10-17T03:56:11.020Z,18.07
2022-10-17T03:57:13.024Z,18.12
2022-10-17T03:58:14.519Z,18.17
2022-10-17T03:59:16.221Z,18.20
2022-10-17T04:00:24.075Z,18.23
2022-10-17T04:01:31.213Z,18.28
2022-10-17T04:02:32.762Z,18.31
2022-10-17T04:03:34.375Z,18.33
2022-10-17T04:04:35.855Z,18.30
2022-10-17T04:05:37.955Z,18.29
2022-10-17T04:06:39.521Z,18.25
2022-10-17T04:07:41.311Z,18.23
2022-10-17T04:08:43.046Z,18.20
2022-10-17T04:09:51.353Z,18.16
2022-10-17T04:10:59.759Z,18.09
2022-10-17T04:12:01.274Z,18.07
2022-10-17T04:13:02.924Z,18.09
2022-10-17T04:14:04.998Z,18.10
2022-10-17T04:15:06.933Z,18.14
2022-10-17T04:16:10.214Z,18.10
2022-10-17T04:17:16.115Z,18.11
2022-10-17T04:18:17.554Z,18.14
2022-10-17T04:19:19.086Z,18.18
2022-10-17T04:20:22.220Z,18.20
2022-10-17T04:21:24.670Z,18.23
2022-10-17T04:22:26.975Z,18.23
2022-10-17T04:23:28.726Z,18.26
2022-10-17T04:24:35.815Z,18.27
2022-10-17T04:25:43.623Z,18.28
2022-10-17T04:26:45.148Z,18.29
2022-10-17T04:27:49.034Z,18.30
2022-10-17T04:28:50.830Z,18.26
2022-10-17T04:29:52.296Z,18.32
2022-10-17T04:31:02.955Z,18.34
2022-10-17T04:32:10.115Z,18.36
2022-10-17T04:33:29.300Z,18.36
2022-10-17T04:34:30.793Z,18.33
2022-10-17T04:35:32.392Z,18.32
2022-10-17T04:36:37.666Z,18.33
2022-10-17T04:37:39.149Z,18.36
2022-10-17T04:38:47.104Z,18.38
2022-10-17T04:39:48.615Z,18.40
2022-10-17T04:40:50.095Z,18.35
2022-10-17T04:41:51.555Z,18.38
2022-10-17T04:42:53.112Z,18.39
2022-10-17T04:43:58.093Z,18.41
2022-10-17T04:45:00.862Z,18.43
2022-10-17T04:46:03.195Z,18.44
2022-10-17T04:47:04.713Z,18.44
2022-10-17T04:48:06.260Z,18.45
2022-10-17T04:49:08.757Z,18.46
2022-10-17T04:50:11.260Z,18.47
2022-10-17T04:51:15.231Z,18.48
2022-10-17T04:52:34.706Z,18.47
2022-10-17T04:53:37.312Z,18.47
2022-10-17T04:54:39.059Z,18.47
2022-10-17T04:55:43.528Z,18.47
2022-10-17T04:56:45.112Z,18.48
2022-10-17T04:57:46.619Z,18.49
2022-10-17T04:58:54.379Z,18.48
2022-10-17T04:59:56.659Z,18.48
2022-10-17T05:01:30.269Z,18.47
2022-10-17T05:02:32.629Z,18.46
2022-10-17T05:03:36.406Z,18.46
2022-10-17T05:04:37.871Z,18.46
2022-10-17T05:05:40.067Z,18.45
2022-10-17T05:06:41.620Z,18.43
2022-10-17T05:08:01.291Z,18.42
2022-10-17T05:09:06.140Z,18.41
2022-10-17T05:10:08.062Z,18.30
2022-10-17T05:11:19.742Z,18.40
2022-10-17T05:12:21.734Z,18.38
2022-10-17T05:13:23.282Z,18.38
2022-10-17T05:14:24.758Z,18.38
2022-10-17T05:15:26.219Z,18.37
2022-10-17T05:16:29.414Z,18.36
2022-10-17T05:17:30.875Z,18.35
2022-10-17T05:18:32.399Z,18.34
2022-10-17T05:19:33.881Z,18.34
2022-10-17T05:20:35.571Z,18.33
2022-10-17T05:21:37.473Z,18.30
2022-10-17T05:22:42.050Z,18.31
2022-10-17T05:23:45.031Z,18.30
2022-10-17T05:24:46.515Z,18.29
2022-10-17T05:25:48.352Z,18.28
2022-10-17T05:26:50.267Z,18.27
2022-10-17T05:27:52.222Z,18.20
2022-10-17T05:28:54.728Z,18.19
2022-10-17T05:29:57.839Z,18.19
2022-10-17T05:31:05.726Z,18.21
2022-10-17T05:32:07.198Z,18.17
2022-10-17T05:33:09.662Z,18.10
2022-10-17T05:34:13.188Z,18.06
2022-10-17T05:35:16.121Z,18.02
2022-10-17T05:36:17.651Z,17.97
2022-10-17T05:37:19.208Z,17.98
2022-10-17T05:38:24.859Z,17.98
2022-10-17T05:39:26.352Z,17.99
2022-10-17T05:40:27.827Z,18.02
2022-10-17T05:41:29.620Z,18.03
2022-10-17T05:42:31.804Z,18.02
2022-10-17T05:43:33.737Z,18.03
2022-10-17T05:44:35.739Z,18.00
2022-10-17T05:45:37.669Z,17.98
2022-10-17T05:46:39.951Z,17.96
2022-10-17T05:47:41.605Z,17.96
2022-10-17T05:48:43.770Z,17.98
2022-10-17T05:49:50.048Z,18.00
2022-10-17T05:51:02.436Z,18.03
2022-10-17T05:52:04.652Z,18.00
2022-10-17T05:53:11.683Z,17.96
2022-10-17T05:54:19.213Z,17.90
2022-10-17T05:55:20.711Z,17.90
2022-10-17T05:56:22.235Z,17.91
2022-10-17T05:57:26.453Z,17.91
2022-10-17T06:00:01.045Z,17.82
2022-10-17T06:01:06.213Z,17.82
2022-10-17T06:02:10.312Z,17.80
2022-10-17T06:03:11.830Z,17.81
2022-10-17T06:04:13.375Z,17.79
2022-10-17T06:05:15.370Z,17.80
2022-10-17T06:06:17.336Z,17.78
2022-10-17T06:07:19.960Z,17.77
2022-10-17T06:08:22.634Z,17.77
2022-10-17T06:09:24.807Z,17.70
2022-10-17T06:10:28.658Z,17.66
2022-10-17T06:11:30.443Z,17.59
2022-10-17T06:12:32.179Z,17.60
2022-10-17T06:13:34.034Z,17.58
2022-10-17T06:14:39.539Z,17.56
2022-10-17T06:15:41.979Z,17.57
2022-10-17T06:16:43.860Z,17.60
2022-10-17T06:17:45.422Z,17.57
2022-10-17T06:18:46.901Z,17.53
2022-10-17T06:19:48.390Z,17.59
2022-10-17T06:20:50.470Z,17.63
2022-10-17T06:21:53.423Z,17.68
2022-10-17T06:22:57.033Z,17.70
2022-10-17T06:24:30.658Z,17.70
2022-10-17T06:25:32.594Z,17.65
2022-10-17T06:26:34.223Z,17.65
2022-10-17T06:27:35.741Z,17.65
2022-10-17T06:28:37.439Z,17.61
2022-10-17T06:29:39.313Z,17.63
2022-10-17T06:30:41.335Z,17.63
2022-10-17T06:31:42.798Z,17.67
2022-10-17T06:32:44.893Z,17.71
2022-10-17T06:33:46.934Z,17.75
2022-10-17T06:34:48.414Z,17.77
2022-10-17T06:35:53.985Z,17.82
2022-10-17T06:38:04.428Z,17.95
2022-10-17T06:39:07.006Z,18.01
2022-10-17T06:40:15.126Z,18.11
2022-10-17T06:41:18.566Z,18.18
2022-10-17T06:42:20.034Z,18.25
2022-10-17T06:43:47.579Z,18.38
2022-10-17T06:45:18.296Z,18.43
2022-10-17T06:46:29.831Z,18.48
2022-10-17T06:47:36.693Z,18.53
2022-10-17T06:48:48.175Z,18.58
2022-10-17T06:50:08.274Z,18.68
2022-10-17T06:51:16.795Z,18.75
2022-10-17T06:52:23.218Z,18.77
2022-10-17T06:53:53.579Z,18.90
2022-10-17T06:55:24.032Z,19.00
2022-10-17T06:57:03.795Z,19.14
2022-10-17T06:58:20.299Z,19.28
2022-10-17T06:59:43.322Z,19.46
2022-10-17T07:00:50.081Z,19.55
2022-10-17T07:01:52.430Z,19.65
2022-10-17T07:02:53.990Z,19.71
2022-10-17T07:03:55.793Z,19.80
2022-10-17T07:04:57.716Z,19.88
2022-10-17T07:05:59.283Z,19.98
2022-10-17T07:07:03.126Z,20.06
2022-10-17T07:08:05.795Z,20.06
2022-10-17T07:09:07.499Z,20.08
2022-10-17T07:10:11.364Z,20.08
2022-10-17T07:11:15.502Z,20.11
2022-10-17T07:12:17.018Z,20.19
2022-10-17T07:13:20.031Z,20.24
2022-10-17T07:14:21.522Z,20.23
2022-10-17T07:15:23.332Z,20.32
2022-10-17T07:16:25.436Z,20.34
2022-10-17T07:17:35.491Z,20.38
2022-10-17T07:18:37.007Z,20.41
2022-10-17T07:19:38.475Z,20.40
2022-10-17T07:20:42.604Z,20.47
2022-10-17T07:21:44.129Z,20.42
2022-10-17T07:22:46.574Z,20.35
2022-10-17T07:23:48.163Z,20.36
2022-10-17T07:26:09.878Z,20.52
2022-10-17T07:27:13.068Z,20.63
2022-10-17T07:28:14.971Z,20.63
2022-10-17T07:29:16.584Z,20.77
2022-10-17T07:30:22.872Z,20.88
2022-10-17T07:31:32.147Z,20.95
2022-10-17T07:32:33.621Z,20.91
2022-10-17T07:33:35.193Z,20.92
2022-10-17T07:34:36.770Z,20.95
2022-10-17T07:35:40.929Z,20.88
2022-10-17T07:36:42.657Z,20.81
2022-10-17T07:37:44.111Z,20.78
2022-10-17T07:38:45.668Z,20.76
2022-10-17T07:39:47.356Z,20.83
2022-10-17T07:40:53.683Z,20.84
2022-10-17T07:41:55.358Z,20.92
2022-10-17T07:42:58.141Z,20.82
2022-10-17T07:44:00.683Z,20.76
2022-10-17T07:45:08.012Z,20.88
2022-10-17T07:46:11.423Z,21.09
2022-10-17T07:47:13.531Z,21.11
2022-10-17T07:48:15.023Z,21.23
2022-10-17T07:49:16.517Z,21.42
2022-10-17T07:50:19.729Z,21.44
2022-10-17T07:51:21.996Z,21.43
2022-10-17T07:52:23.432Z,21.41
2022-10-17T07:53:24.956Z,21.58
2022-10-17T07:54:26.373Z,21.67
2022-10-17T07:55:27.843Z,21.70
2022-10-17T07:56:29.692Z,21.82
2022-10-17T07:57:31.175Z,21.94
2022-10-17T07:58:32.657Z,21.93
2022-10-17T07:59:34.508Z,22.03
2022-10-17T08:00:36.754Z,22.07
2022-10-17T08:01:38.308Z,21.97
2022-10-17T08:02:39.840Z,22.07
2022-10-17T08:03:42.845Z,22.21
2022-10-17T08:04:44.274Z,22.39
2022-10-17T08:05:45.760Z,22.52
2022-10-17T08:06:47.232Z,22.59
2022-10-17T08:07:48.736Z,22.72
2022-10-17T08:08:50.187Z,22.76
2022-10-17T08:09:51.674Z,22.81
2022-10-17T08:10:54.245Z,22.95
2022-10-17T08:11:55.723Z,23.17
2022-10-17T08:12:57.315Z,23.27
2022-10-17T08:13:58.818Z,23.23
2022-10-17T08:15:00.825Z,23.32
2022-10-17T08:16:02.573Z,23.36
2022-10-17T08:17:04.475Z,23.41
2022-10-17T08:18:05.915Z,23.38
2022-10-17T08:20:15.411Z,23.33
2022-10-17T08:21:16.874Z,23.32
2022-10-17T08:22:18.290Z,23.38
2022-10-17T08:23:19.793Z,23.43
2022-10-17T08:24:21.389Z,23.39
2022-10-17T08:25:22.922Z,23.33
2022-10-17T08:26:24.421Z,23.22
2022-10-17T08:27:27.729Z,23.30
2022-10-17T08:28:29.278Z,23.40
2022-10-17T08:29:32.793Z,23.39
2022-10-17T08:30:34.256Z,23.36
2022-10-17T08:31:35.689Z,23.32
2022-10-17T08:32:37.170Z,23.24
2022-10-17T08:33:38.652Z,23.17
2022-10-17T08:34:40.109Z,23.17
2022-10-17T08:35:41.647Z,23.14
2022-10-17T08:36:43.062Z,23.01
2022-10-17T08:37:44.484Z,23.00
2022-10-17T08:38:48.009Z,23.17
2022-10-17T08:39:53.208Z,23.29
2022-10-17T08:40:55.865Z,23.38
2022-10-17T08:42:00.171Z,23.47
2022-10-17T08:43:04.670Z,23.54
2022-10-17T08:44:06.092Z,23.66
2022-10-17T08:45:10.445Z,23.81
2022-10-17T08:46:11.979Z,23.75
2022-10-17T08:47:14.606Z,23.80
2022-10-17T08:48:18.008Z,23.84
2022-10-17T08:49:21.947Z,23.92
2022-10-17T08:50:37.165Z,23.96
2022-10-17T08:51:40.366Z,23.94
2022-10-17T08:52:43.756Z,23.90
2022-10-17T08:53:48.051Z,24.01
2022-10-17T08:54:49.768Z,24.10
2022-10-17T08:55:51.780Z,24.17
2022-10-17T08:56:53.478Z,24.24
2022-10-17T08:57:54.923Z,24.30
2022-10-17T08:58:56.409Z,24.27
2022-10-17T08:59:57.961Z,24.22
2022-10-17T09:01:11.901Z,24.33
2022-10-17T09:02:33.075Z,24.49
2022-10-17T09:03:38.604Z,24.42
2022-10-17T09:04:43.022Z,24.41
2022-10-17T09:05:52.094Z,24.55
2022-10-17T09:06:59.307Z,24.54
2022-10-17T09:08:19.531Z,24.24
2022-10-17T09:09:28.258Z,23.92
2022-10-17T09:10:32.564Z,23.81
2022-10-17T09:11:34.047Z,23.83
2022-10-17T09:12:38.366Z,23.91
2022-10-17T09:13:58.317Z,23.96
2022-10-17T09:14:59.766Z,24.01
2022-10-17T09:16:05.284Z,24.06
2022-10-17T09:17:25.312Z,24.15
2022-10-17T09:18:31.767Z,24.31
2022-10-17T09:19:37.292Z,24.26
2022-10-17T09:20:47.044Z,24.19
2022-10-17T09:21:58.771Z,24.29
2022-10-17T09:23:00.330Z,24.35
2022-10-17T09:24:09.618Z,24.39
2022-10-17T09:25:12.595Z,24.41
2022-10-17T09:26:14.136Z,24.51
2022-10-17T09:27:23.807Z,24.72
2022-10-17T09:28:27.026Z,24.85
2022-10-17T09:29:34.297Z,24.61
2022-10-17T09:30:46.167Z,24.56
2022-10-17T09:32:06.723Z,24.65
2022-10-17T09:33:23.082Z,24.91
2022-10-17T09:34:33.523Z,25.24
2022-10-17T09:35:35.215Z,25.33
2022-10-17T09:36:37.922Z,25.43
2022-10-17T09:37:39.412Z,25.55
2022-10-17T09:38:41.825Z,25.66
2022-10-17T09:39:43.631Z,25.71
2022-10-17T09:40:45.428Z,25.56
2022-10-17T09:41:50.670Z,25.49
2022-10-17T09:42:52.896Z,25.30
2022-10-17T09:43:57.161Z,25.36
2022-10-17T09:45:05.450Z,25.65
2022-10-17T09:46:06.937Z,25.95
2022-10-17T09:47:27.376Z,26.09
2022-10-17T09:48:34.654Z,26.36
2022-10-17T09:49:37.043Z,26.31
2022-10-17T09:50:38.511Z,26.33
2022-10-17T09:51:40.429Z,26.49
2022-10-17T09:52:42.609Z,26.63
2022-10-17T09:53:48.394Z,26.82
2022-10-17T09:54:55.834Z,26.83
2022-10-17T09:55:57.903Z,26.85
2022-10-17T09:57:03.174Z,26.83
2022-10-17T09:58:05.334Z,26.82
2022-10-17T09:59:09.312Z,26.84
2022-10-17T10:00:20.237Z,26.90
2022-10-17T10:01:28.917Z,26.86
2022-10-17T10:02:31.053Z,26.78
2022-10-17T10:03:32.929Z,26.90
2022-10-17T10:04:46.939Z,26.97
2022-10-17T10:06:02.018Z,26.91
2022-10-17T10:07:04.494Z,26.91
2022-10-17T10:08:06.784Z,26.96
2022-10-17T10:10:27.803Z,27.09
2022-10-17T10:11:48.772Z,27.23
2022-10-17T10:13:06.833Z,27.34
2022-10-17T10:14:11.446Z,27.38
2022-10-17T10:15:35.400Z,27.46
2022-10-17T10:16:41.136Z,27.54
2022-10-17T10:17:42.742Z,27.62
2022-10-17T10:18:45.474Z,27.78
2022-10-17T10:19:51.878Z,27.90
2022-10-17T10:21:04.353Z,27.82
2022-10-17T10:22:06.522Z,27.97
2022-10-17T10:23:11.370Z,28.09
2022-10-17T10:24:13.305Z,28.15
2022-10-17T10:25:15.479Z,28.19
2022-10-17T10:26:21.073Z,28.10
2022-10-17T10:27:22.694Z,28.14
2022-10-17T10:28:28.364Z,28.16
2022-10-17T10:29:31.251Z,28.15
2022-10-17T10:30:36.163Z,28.14
2022-10-17T10:31:40.610Z,28.06
2022-10-17T10:32:42.327Z,28.13
2022-10-17T10:33:46.967Z,27.97
2022-10-17T10:34:54.004Z,28.02
2022-10-17T10:35:56.564Z,28.04
2022-10-17T10:37:16.266Z,28.12
2022-10-17T10:38:18.607Z,27.91
2022-10-17T10:39:38.352Z,28.08
2022-10-17T10:40:46.970Z,28.23
2022-10-17T10:41:48.414Z,28.51
2022-10-17T10:42:50.455Z,28.61
2022-10-17T10:43:51.918Z,28.81
2022-10-17T10:44:54.193Z,28.89
2022-10-17T10:45:55.611Z,28.99
2022-10-17T10:47:07.365Z,29.09
2022-10-17T10:48:14.638Z,29.18
2022-10-17T10:49:29.597Z,29.30
2022-10-17T10:50:33.906Z,29.19
2022-10-17T10:51:37.147Z,29.02
2022-10-17T10:52:42.798Z,29.04
2022-10-17T10:53:45.800Z,28.97
2022-10-17T10:54:51.526Z,28.86
2022-10-17T10:56:00.540Z,28.93
2022-10-17T10:57:03.495Z,28.96
2022-10-17T10:58:08.501Z,28.99
2022-10-17T10:59:11.527Z,29.04
2022-10-17T11:00:15.508Z,29.09
2022-10-17T11:01:37.580Z,28.98
2022-10-17T11:02:57.614Z,28.97
2022-10-17T11:04:02.235Z,28.92
2022-10-17T11:05:04.976Z,28.87
2022-10-17T11:06:11.358Z,28.89
2022-10-17T11:07:12.793Z,28.89
2022-10-17T11:08:34.887Z,28.81
2022-10-17T11:09:45.483Z,28.77
2022-10-17T11:10:52.119Z,28.42
2022-10-17T11:11:59.400Z,28.26
2022-10-17T11:13:05.187Z,28.23
2022-10-17T11:14:19.831Z,28.28
2022-10-17T11:15:44.534Z,28.32
2022-10-17T11:16:57.994Z,28.26
2022-10-17T11:18:08.669Z,28.30
2022-10-17T11:19:28.717Z,28.08
2022-10-17T11:20:36.655Z,28.04
2022-10-17T11:21:44.004Z,28.02
2022-10-17T11:22:47.186Z,27.94
2022-10-17T11:23:53.212Z,27.82
2022-10-17T11:24:57.205Z,27.83
2022-10-17T11:25:59.142Z,27.75
2022-10-17T11:27:04.183Z,27.79
2022-10-17T11:28:25.963Z,27.78
2022-10-17T11:29:28.623Z,27.83
2022-10-17T11:30:32.936Z,27.91
2022-10-17T11:31:35.579Z,27.89
2022-10-17T11:32:41.380Z,27.82
2022-10-17T11:33:49.855Z,27.78
2022-10-17T11:35:17.616Z,27.84
2022-10-17T11:36:22.532Z,27.70
2022-10-17T11:37:26.512Z,27.69
2022-10-17T11:38:37.115Z,27.72
2022-10-17T11:39:55.007Z,27.74
2022-10-17T11:40:57.428Z,27.79
2022-10-17T11:42:18.755Z,27.80
2022-10-17T11:43:20.188Z,27.76
2022-10-17T11:44:51.178Z,27.77
2022-10-17T11:45:53.318Z,27.80
2022-10-17T11:46:55.720Z,27.81
2022-10-17T11:47:59.948Z,27.83
2022-10-17T11:49:10.561Z,27.85
2022-10-17T11:52:09.658Z,27.98
2022-10-17T11:53:17.811Z,27.99
2022-10-17T11:54:26.634Z,28.01
2022-10-17T11:55:28.960Z,27.99
2022-10-17T11:56:51.607Z,27.95
2022-10-17T11:57:55.855Z,27.82
2022-10-17T11:58:57.356Z,27.84
2022-10-17T12:00:03.015Z,27.77
2022-10-17T12:01:09.031Z,27.78
2022-10-17T12:02:36.834Z,27.74
2022-10-17T12:03:41.477Z,27.74
2022-10-17T12:04:49.873Z,27.80
2022-10-17T12:06:05.029Z,27.77
2022-10-17T12:07:10.782Z,27.85
2022-10-17T12:08:26.983Z,27.89
2022-10-17T12:09:30.673Z,27.91
2022-10-17T12:10:38.199Z,27.91
2022-10-17T12:11:54.092Z,27.91
2022-10-17T12:12:55.699Z,27.94
2022-10-17T12:13:57.463Z,28.01
2022-10-17T12:15:14.042Z,28.06
2022-10-17T12:16:21.255Z,28.12
2022-10-17T12:17:30.681Z,28.19
2022-10-17T12:18:35.108Z,28.29
2022-10-17T12:19:36.835Z,28.37
2022-10-17T12:20:38.401Z,28.41
2022-10-17T12:21:58.089Z,28.47
2022-10-17T12:23:02.014Z,28.53
2022-10-17T12:24:03.562Z,28.58
2022-10-17T12:25:05.115Z,28.61
2022-10-17T12:26:09.768Z,28.69
2022-10-17T12:27:30.437Z,28.69
2022-10-17T12:28:33.914Z,28.70
2022-10-17T12:29:35.495Z,28.71
2022-10-17T12:30:37.144Z,28.76
2022-10-17T12:31:38.963Z,28.75
2022-10-17T12:33:06.043Z,28.78
2022-10-17T12:34:15.310Z,28.84
2022-10-17T12:35:19.144Z,28.89
2022-10-17T12:36:23.144Z,28.93
2022-10-17T12:37:43.068Z,28.94
2022-10-17T12:38:47.828Z,28.95
2022-10-17T12:39:51.666Z,28.97
2022-10-17T12:40:53.983Z,28.98
2022-10-17T12:41:55.523Z,29.02
2022-10-17T12:42:56.952Z,29.06
2022-10-17T12:43:58.583Z,29.09
2022-10-17T12:45:00.109Z,29.12
2022-10-17T12:46:01.929Z,29.14
2022-10-17T12:47:03.362Z,29.16
2022-10-17T12:48:05.915Z,29.20
2022-10-17T12:49:19.454Z,29.23
2022-10-17T12:50:44.266Z,29.27
2022-10-17T12:52:04.651Z,29.30
2022-10-17T12:53:06.160Z,29.28
2022-10-17T12:54:12.552Z,29.30
2022-10-17T12:55:15.661Z,29.35
2022-10-17T12:56:18.714Z,29.39
2022-10-17T12:57:25.379Z,29.44
2022-10-17T12:58:26.815Z,29.49
2022-10-17T12:59:28.607Z,29.52
2022-10-17T13:00:30.078Z,29.55
2022-10-17T13:01:32.234Z,29.57
2022-10-17T13:02:34.000Z,29.61
2022-10-17T13:03:35.699Z,29.62
2022-10-17T13:04:37.219Z,29.66
2022-10-17T13:05:40.041Z,29.67
2022-10-17T13:06:48.315Z,29.70
2022-10-17T13:07:49.751Z,29.71
2022-10-17T13:08:57.701Z,29.72
2022-10-17T13:10:05.150Z,29.75
2022-10-17T13:11:06.707Z,29.76
2022-10-17T13:12:11.079Z,29.75
2022-10-17T13:13:26.750Z,29.76
2022-10-17T13:14:28.187Z,29.79
2022-10-17T13:15:29.711Z,29.74
2022-10-17T13:16:32.065Z,29.74
2022-10-17T13:17:34.787Z,29.76
2022-10-17T13:18:36.467Z,29.76
2022-10-17T13:19:42.199Z,29.77
2022-10-17T13:20:43.776Z,29.79
2022-10-17T13:22:06.340Z,29.77
2022-10-17T13:23:22.013Z,29.81
2022-10-17T13:24:41.685Z,29.81
2022-10-17T13:25:43.135Z,29.81
2022-10-17T13:26:47.653Z,29.81
2022-10-17T13:27:49.428Z,29.78
2022-10-17T13:29:05.913Z,29.80
2022-10-17T13:30:26.683Z,29.73
2022-10-17T13:31:32.037Z,29.74
2022-10-17T13:32:37.566Z,29.76
2022-10-17T13:33:39.439Z,29.80
2022-10-17T13:34:41.019Z,29.80
2022-10-17T13:35:59.556Z,29.79
2022-10-17T13:37:02.923Z,29.80
2022-10-17T13:38:06.844Z,29.80
2022-10-17T13:39:12.269Z,29.77
2022-10-17T13:40:40.266Z,29.75
2022-10-17T13:41:38.236Z,29.71
2022-10-17T13:42:39.761Z,29.72
2022-10-17T13:43:41.488Z,29.68
2022-10-17T13:44:43.575Z,29.69
2022-10-17T13:45:49.467Z,29.72
2022-10-17T13:46:51.152Z,29.70
2022-10-17T13:47:52.749Z,29.71
2022-10-17T13:48:54.214Z,29.72
2022-10-17T13:49:55.868Z,29.74
2022-10-17T13:51:00.471Z,29.72
2022-10-17T13:52:04.423Z,29.71
2022-10-17T13:53:08.659Z,29.71
2022-10-17T13:54:28.062Z,29.71
2022-10-17T13:55:29.483Z,29.70
2022-10-17T13:56:31.917Z,29.71
2022-10-17T13:57:33.885Z,29.71
2022-10-17T13:59:06.126Z,29.71
2022-10-17T14:00:12.403Z,29.72
2022-10-17T14:01:14.247Z,29.72
2022-10-17T14:02:16.949Z,29.73
2022-10-17T14:03:19.822Z,29.73
2022-10-17T14:04:21.310Z,29.72
2022-10-17T14:05:23.727Z,29.70
2022-10-17T14:06:25.614Z,29.71
2022-10-17T14:07:46.371Z,29.70
2022-10-17T14:08:59.217Z,29.69
2022-10-17T14:10:00.763Z,29.67
2022-10-17T14:11:02.234Z,29.65